sensor_id;sensor_type;location;lat;lon;timestamp;temperature;humidity
40556;DHT22;26250;45.422;11.100;2022-09-23T10:31:17;19.90;58.10
40556;DHT22;26250;45.422;11.100;2022-09-23T10:33:52;19.90;58.10
40556;DHT22;26250;45.422;11.100;2022-09-23T10:36:23;20.00;58.30
40556;DHT22;26250;45.422;11.100;2022-09-23T10:38:54;19.90;58.20
40556;DHT22;26250;45.422;11.100;2022-09-23T10:41:34;20.00;57.10
40556;DHT22;26250;45.422;11.100;2022-09-23T10:44:39;20.10;55.90
40556;DHT22;26250;45.422;11.100;2022-09-23T10:47:40;20.10;57.70
40556;DHT22;26250;45.422;11.100;2022-09-23T10:51:01;20.10;58.10
40556;DHT22;26250;45.422;11.100;2022-09-23T11:18:31;20.40;56.80
40556;DHT22;26250;45.422;11.100;2022-09-23T11:21:14;20.50;56.00
40556;DHT22;26250;45.422;11.100;2022-09-23T11:30:09;20.50;61.40
40556;DHT22;26250;45.422;11.100;2022-09-23T11:38:39;20.60;57.30
40556;DHT22;26250;45.422;11.100;2022-09-23T11:40:46;20.60;62.50
40556;DHT22;26250;45.422;11.100;2022-09-23T11:43:28;20.70;61.30
40556;DHT22;26250;45.422;11.100;2022-09-23T11:48:44;20.60;59.60
40556;DHT22;26250;45.422;11.100;2022-09-23T11:51:32;20.60;59.70
40556;DHT22;26250;45.422;11.100;2022-09-23T11:56:52;20.70;57.10
40556;DHT22;26250;45.422;11.100;2022-09-23T11:59:35;20.70;56.20
40556;DHT22;26250;45.422;11.100;2022-09-23T12:02:27;20.70;54.80
40556;DHT22;26250;45.422;11.100;2022-09-23T12:05:13;20.80;56.20
40556;DHT22;26250;45.422;11.100;2022-09-23T12:13:46;20.90;55.10
40556;DHT22;26250;45.422;11.100;2022-09-23T12:24:32;21.10;55.30
40556;DHT22;26250;45.422;11.100;2022-09-23T12:27:05;21.00;54.60
40556;DHT22;26250;45.422;11.100;2022-09-23T12:29:34;21.00;54.80
40556;DHT22;26250;45.422;11.100;2022-09-23T12:32:02;21.00;56.80
40556;DHT22;26250;45.422;11.100;2022-09-23T12:37:03;21.00;54.60
40556;DHT22;26250;45.422;11.100;2022-09-23T12:39:34;21.00;55.10
40556;DHT22;26250;45.422;11.100;2022-09-23T12:42:10;21.00;59.00
40556;DHT22;26250;45.422;11.100;2022-09-23T12:44:41;21.00;56.50
40556;DHT22;26250;45.422;11.100;2022-09-23T12:47:29;21.00;55.10
40556;DHT22;26250;45.422;11.100;2022-09-23T12:56:23;21.10;55.40
40556;DHT22;26250;45.422;11.100;2022-09-23T13:01:18;21.20;58.90
40556;DHT22;26250;45.422;11.100;2022-09-23T13:03:47;21.20;53.70
40556;DHT22;26250;45.422;11.100;2022-09-23T13:06:46;21.20;53.50
40556;DHT22;26250;45.422;11.100;2022-09-23T13:09:26;21.20;52.80
40556;DHT22;26250;45.422;11.100;2022-09-23T13:12:01;21.30;53.30
40556;DHT22;26250;45.422;11.100;2022-09-23T13:14:31;21.30;52.90
40556;DHT22;26250;45.422;11.100;2022-09-23T13:17:00;21.40;52.80
40556;DHT22;26250;45.422;11.100;2022-09-23T13:22:06;21.40;53.20
40556;DHT22;26250;45.422;11.100;2022-09-23T13:24:52;21.50;53.20
40556;DHT22;26250;45.422;11.100;2022-09-23T13:30:15;21.60;51.80
40556;DHT22;26250;45.422;11.100;2022-09-23T13:35:45;21.60;52.10
40556;DHT22;26250;45.422;11.100;2022-09-23T13:38:24;21.50;51.90
40556;DHT22;26250;45.422;11.100;2022-09-23T13:41:06;21.60;52.40
40556;DHT22;26250;45.422;11.100;2022-09-23T13:43:42;21.60;52.00
40556;DHT22;26250;45.422;11.100;2022-09-23T13:46:16;21.60;52.40
40556;DHT22;26250;45.422;11.100;2022-09-23T13:48:45;21.60;52.20
40556;DHT22;26250;45.422;11.100;2022-09-23T13:51:32;21.60;53.70
40556;DHT22;26250;45.422;11.100;2022-09-23T13:54:01;21.60;52.50
40556;DHT22;26250;45.422;11.100;2022-09-23T13:56:31;21.60;52.20
40556;DHT22;26250;45.422;11.100;2022-09-23T14:01:48;21.70;52.60
40556;DHT22;26250;45.422;11.100;2022-09-23T14:04:24;21.80;52.40
40556;DHT22;26250;45.422;11.100;2022-09-23T14:06:54;21.80;52.40
40556;DHT22;26250;45.422;11.100;2022-09-23T14:09:24;21.70;52.20
40556;DHT22;26250;45.422;11.100;2022-09-23T14:11:54;21.70;52.50
40556;DHT22;26250;45.422;11.100;2022-09-23T14:14:22;21.70;52.80
40556;DHT22;26250;45.422;11.100;2022-09-23T14:16:50;21.60;52.00
40556;DHT22;26250;45.422;11.100;2022-09-23T14:19:20;21.70;52.20
40556;DHT22;26250;45.422;11.100;2022-09-23T14:21:49;21.70;52.50
40556;DHT22;26250;45.422;11.100;2022-09-23T14:24:34;21.60;52.10
40556;DHT22;26250;45.422;11.100;2022-09-23T14:27:17;21.60;52.70
40556;DHT22;26250;45.422;11.100;2022-09-23T14:29:47;21.60;52.70
40556;DHT22;26250;45.422;11.100;2022-09-23T14:32:23;21.60;52.20
40556;DHT22;26250;45.422;11.100;2022-09-23T14:35:04;21.70;52.10
40556;DHT22;26250;45.422;11.100;2022-09-23T14:40:26;21.70;52.90
40556;DHT22;26250;45.422;11.100;2022-09-23T14:43:09;21.80;52.30
40556;DHT22;26250;45.422;11.100;2022-09-23T14:45:39;21.80;52.80
40556;DHT22;26250;45.422;11.100;2022-09-23T14:48:16;21.80;52.30
40556;DHT22;26250;45.422;11.100;2022-09-23T14:50:50;21.80;52.90
40556;DHT22;26250;45.422;11.100;2022-09-23T14:55:45;21.90;53.00
40556;DHT22;26250;45.422;11.100;2022-09-23T14:58:16;21.90;52.60
40556;DHT22;26250;45.422;11.100;2022-09-23T15:00:57;21.80;52.70
40556;DHT22;26250;45.422;11.100;2022-09-23T15:03:28;21.80;52.80
40556;DHT22;26250;45.422;11.100;2022-09-23T15:05:58;21.80;52.70
40556;DHT22;26250;45.422;11.100;2022-09-23T15:08:32;21.80;52.60
40556;DHT22;26250;45.422;11.100;2022-09-23T15:11:02;21.80;52.90
40556;DHT22;26250;45.422;11.100;2022-09-23T15:13:38;21.80;52.80
40556;DHT22;26250;45.422;11.100;2022-09-23T15:16:06;21.80;52.70
40556;DHT22;26250;45.422;11.100;2022-09-23T15:18:37;21.80;52.60
40556;DHT22;26250;45.422;11.100;2022-09-23T15:21:07;21.80;51.90
40556;DHT22;26250;45.422;11.100;2022-09-23T15:23:51;21.80;52.80
40556;DHT22;26250;45.422;11.100;2022-09-23T15:26:25;21.80;52.60
40556;DHT22;26250;45.422;11.100;2022-09-23T15:29:09;21.80;52.30
40556;DHT22;26250;45.422;11.100;2022-09-23T15:31:36;21.80;51.70
40556;DHT22;26250;45.422;11.100;2022-09-23T15:34:03;21.70;51.60
40556;DHT22;26250;45.422;11.100;2022-09-23T15:36:31;21.60;51.90
40556;DHT22;26250;45.422;11.100;2022-09-23T15:39:02;21.60;52.00
40556;DHT22;26250;45.422;11.100;2022-09-23T15:41:30;21.60;51.70
40556;DHT22;26250;45.422;11.100;2022-09-23T15:44:19;21.60;52.50
40556;DHT22;26250;45.422;11.100;2022-09-23T15:46:48;21.70;52.90
40556;DHT22;26250;45.422;11.100;2022-09-23T15:49:33;21.70;52.70
40556;DHT22;26250;45.422;11.100;2022-09-23T15:52:03;21.70;52.70
40556;DHT22;26250;45.422;11.100;2022-09-23T15:54:30;21.60;52.90
40556;DHT22;26250;45.422;11.100;2022-09-23T15:57:00;21.60;52.30
40556;DHT22;26250;45.422;11.100;2022-09-23T15:59:28;21.60;52.50
40556;DHT22;26250;45.422;11.100;2022-09-23T16:01:59;21.60;52.30
40556;DHT22;26250;45.422;11.100;2022-09-23T16:04:29;21.60;52.60
40556;DHT22;26250;45.422;11.100;2022-09-23T16:06:57;21.60;52.90
40556;DHT22;26250;45.422;11.100;2022-09-23T16:09:24;21.60;52.70
40556;DHT22;26250;45.422;11.100;2022-09-23T16:11:53;21.60;53.30
40556;DHT22;26250;45.422;11.100;2022-09-23T16:14:23;21.60;52.80
40556;DHT22;26250;45.422;11.100;2022-09-23T16:16:50;21.60;52.70
40556;DHT22;26250;45.422;11.100;2022-09-23T16:19:17;21.50;53.30
40556;DHT22;26250;45.422;11.100;2022-09-23T16:21:43;21.50;52.70
40556;DHT22;26250;45.422;11.100;2022-09-23T16:24:14;21.50;53.20
40556;DHT22;26250;45.422;11.100;2022-09-23T16:26:43;21.50;52.90
40556;DHT22;26250;45.422;11.100;2022-09-23T16:29:11;21.40;53.00
40556;DHT22;26250;45.422;11.100;2022-09-23T16:31:38;21.40;53.00
40556;DHT22;26250;45.422;11.100;2022-09-23T16:34:06;21.40;53.30
40556;DHT22;26250;45.422;11.100;2022-09-23T16:36:40;21.40;53.20
40556;DHT22;26250;45.422;11.100;2022-09-23T16:39:10;21.30;53.00
40556;DHT22;26250;45.422;11.100;2022-09-23T16:41:38;21.30;53.20
40556;DHT22;26250;45.422;11.100;2022-09-23T16:44:06;21.30;53.40
40556;DHT22;26250;45.422;11.100;2022-09-23T16:46:38;21.20;53.50
40556;DHT22;26250;45.422;11.100;2022-09-23T16:49:08;21.20;55.30
40556;DHT22;26250;45.422;11.100;2022-09-23T16:51:37;21.10;59.40
40556;DHT22;26250;45.422;11.100;2022-09-23T16:54:07;20.90;58.90
40556;DHT22;26250;45.422;11.100;2022-09-23T16:56:37;20.80;58.50
40556;DHT22;26250;45.422;11.100;2022-09-23T16:59:04;20.70;59.70
40556;DHT22;26250;45.422;11.100;2022-09-23T17:01:31;20.60;60.20
40556;DHT22;26250;45.422;11.100;2022-09-23T17:04:17;20.50;62.20
40556;DHT22;26250;45.422;11.100;2022-09-23T17:06:49;20.40;61.90
40556;DHT22;26250;45.422;11.100;2022-09-23T17:09:26;20.30;62.40
40556;DHT22;26250;45.422;11.100;2022-09-23T17:12:13;20.20;62.50
40556;DHT22;26250;45.422;11.100;2022-09-23T17:14:43;20.10;62.60
40556;DHT22;26250;45.422;11.100;2022-09-23T17:17:09;20.00;63.10
40556;DHT22;26250;45.422;11.100;2022-09-23T17:19:37;19.90;64.10
40556;DHT22;26250;45.422;11.100;2022-09-23T17:22:06;19.70;64.20
40556;DHT22;26250;45.422;11.100;2022-09-23T17:24:33;19.70;64.30
40556;DHT22;26250;45.422;11.100;2022-09-23T17:27:00;19.70;64.90
40556;DHT22;26250;45.422;11.100;2022-09-23T17:29:27;19.60;64.50
40556;DHT22;26250;45.422;11.100;2022-09-23T17:31:54;19.60;64.50
40556;DHT22;26250;45.422;11.100;2022-09-23T17:34:24;19.50;65.50
40556;DHT22;26250;45.422;11.100;2022-09-23T17:36:51;19.50;66.30
40556;DHT22;26250;45.422;11.100;2022-09-23T17:39:18;19.50;65.40
40556;DHT22;26250;45.422;11.100;2022-09-23T17:41:45;19.40;65.10
40556;DHT22;26250;45.422;11.100;2022-09-23T17:44:12;19.40;65.30
40556;DHT22;26250;45.422;11.100;2022-09-23T17:46:39;19.40;65.70
40556;DHT22;26250;45.422;11.100;2022-09-23T17:49:06;19.40;66.00
40556;DHT22;26250;45.422;11.100;2022-09-23T17:51:34;19.20;67.20
40556;DHT22;26250;45.422;11.100;2022-09-23T17:54:00;19.10;66.20
40556;DHT22;26250;45.422;11.100;2022-09-23T17:56:27;19.10;65.10
40556;DHT22;26250;45.422;11.100;2022-09-23T17:59:00;19.10;64.80
40556;DHT22;26250;45.422;11.100;2022-09-23T18:01:27;18.90;65.40
40556;DHT22;26250;45.422;11.100;2022-09-23T18:03:56;18.80;65.60
40556;DHT22;26250;45.422;11.100;2022-09-23T18:06:25;18.80;66.20
40556;DHT22;26250;45.422;11.100;2022-09-23T18:08:53;18.80;65.80
40556;DHT22;26250;45.422;11.100;2022-09-23T18:11:26;18.80;65.60
40556;DHT22;26250;45.422;11.100;2022-09-23T18:13:58;18.60;65.30
40556;DHT22;26250;45.422;11.100;2022-09-23T18:16:27;18.50;66.10
40556;DHT22;26250;45.422;11.100;2022-09-23T18:18:59;18.50;66.70
40556;DHT22;26250;45.422;11.100;2022-09-23T18:21:29;18.50;67.60
40556;DHT22;26250;45.422;11.100;2022-09-23T18:23:56;18.50;67.00
40556;DHT22;26250;45.422;11.100;2022-09-23T18:26:45;18.50;66.50
40556;DHT22;26250;45.422;11.100;2022-09-23T18:29:12;18.60;66.80
40556;DHT22;26250;45.422;11.100;2022-09-23T18:31:41;18.40;67.60
40556;DHT22;26250;45.422;11.100;2022-09-23T18:34:11;18.30;68.20
40556;DHT22;26250;45.422;11.100;2022-09-23T18:36:38;18.10;68.70
40556;DHT22;26250;45.422;11.100;2022-09-23T18:39:06;18.00;69.50
40556;DHT22;26250;45.422;11.100;2022-09-23T18:41:33;18.10;69.20
40556;DHT22;26250;45.422;11.100;2022-09-23T18:44:01;18.10;68.80
40556;DHT22;26250;45.422;11.100;2022-09-23T18:46:29;18.10;68.50
40556;DHT22;26250;45.422;11.100;2022-09-23T18:48:57;18.20;68.30
40556;DHT22;26250;45.422;11.100;2022-09-23T18:51:51;18.20;68.20
40556;DHT22;26250;45.422;11.100;2022-09-23T18:54:20;18.20;68.30
40556;DHT22;26250;45.422;11.100;2022-09-23T18:56:48;18.10;68.70
40556;DHT22;26250;45.422;11.100;2022-09-23T18:59:19;18.10;68.80
40556;DHT22;26250;45.422;11.100;2022-09-23T19:01:47;18.10;69.10
40556;DHT22;26250;45.422;11.100;2022-09-23T19:04:18;17.90;69.30
40556;DHT22;26250;45.422;11.100;2022-09-23T19:06:45;18.00;68.90
40556;DHT22;26250;45.422;11.100;2022-09-23T19:09:14;18.00;68.60
40556;DHT22;26250;45.422;11.100;2022-09-23T19:11:41;18.00;70.50
40556;DHT22;26250;45.422;11.100;2022-09-23T19:14:09;18.00;70.50
40556;DHT22;26250;45.422;11.100;2022-09-23T19:16:38;18.10;70.40
40556;DHT22;26250;45.422;11.100;2022-09-23T19:19:06;18.00;72.20
40556;DHT22;26250;45.422;11.100;2022-09-23T19:21:33;18.00;68.50
40556;DHT22;26250;45.422;11.100;2022-09-23T19:24:05;18.10;68.80
40556;DHT22;26250;45.422;11.100;2022-09-23T19:26:40;18.20;72.10
40556;DHT22;26250;45.422;11.100;2022-09-23T19:29:11;18.20;69.60
40556;DHT22;26250;45.422;11.100;2022-09-23T19:31:42;18.10;67.30
40556;DHT22;26250;45.422;11.100;2022-09-23T19:34:14;18.00;68.10
40556;DHT22;26250;45.422;11.100;2022-09-23T19:36:45;18.00;68.80
40556;DHT22;26250;45.422;11.100;2022-09-23T19:39:20;18.00;69.20
40556;DHT22;26250;45.422;11.100;2022-09-23T19:41:49;18.00;70.30
40556;DHT22;26250;45.422;11.100;2022-09-23T19:44:17;17.90;70.50
40556;DHT22;26250;45.422;11.100;2022-09-23T19:46:46;17.80;69.60
40556;DHT22;26250;45.422;11.100;2022-09-23T19:49:22;17.90;69.90
40556;DHT22;26250;45.422;11.100;2022-09-23T19:51:53;17.80;70.00
40556;DHT22;26250;45.422;11.100;2022-09-23T19:54:22;17.60;69.70
40556;DHT22;26250;45.422;11.100;2022-09-23T19:56:51;17.50;69.90
40556;DHT22;26250;45.422;11.100;2022-09-23T19:59:18;17.50;70.40
40556;DHT22;26250;45.422;11.100;2022-09-23T20:01:46;17.40;71.20
40556;DHT22;26250;45.422;11.100;2022-09-23T20:04:14;17.30;72.00
40556;DHT22;26250;45.422;11.100;2022-09-23T20:06:41;17.20;72.40
40556;DHT22;26250;45.422;11.100;2022-09-23T20:09:08;17.10;72.40
40556;DHT22;26250;45.422;11.100;2022-09-23T20:11:35;17.20;71.60
40556;DHT22;26250;45.422;11.100;2022-09-23T20:14:03;17.20;71.30
40556;DHT22;26250;45.422;11.100;2022-09-23T20:16:33;17.10;71.10
40556;DHT22;26250;45.422;11.100;2022-09-23T20:19:01;17.20;71.20
40556;DHT22;26250;45.422;11.100;2022-09-23T20:21:30;17.20;71.20
40556;DHT22;26250;45.422;11.100;2022-09-23T20:23:57;17.30;71.10
40556;DHT22;26250;45.422;11.100;2022-09-23T20:26:24;17.40;71.30
40556;DHT22;26250;45.422;11.100;2022-09-23T20:29:10;17.50;70.40
40556;DHT22;26250;45.422;11.100;2022-09-23T20:31:37;17.50;70.50
40556;DHT22;26250;45.422;11.100;2022-09-23T20:34:07;17.60;70.60
40556;DHT22;26250;45.422;11.100;2022-09-23T20:36:37;17.60;70.10
40556;DHT22;26250;45.422;11.100;2022-09-23T20:39:05;17.60;72.00
40556;DHT22;26250;45.422;11.100;2022-09-23T20:41:33;17.40;72.90
40556;DHT22;26250;45.422;11.100;2022-09-23T20:44:05;17.40;72.40
